Aviation Digital Data Service (ADDS)

Output produced by METARs form (1202 UTC 22 December 2014)
found at http://aviationweather.gov/adds/metars/
 
KPHL 221127Z 2212/2318 34005KT P6SM OVC020 
     FM221400 02004KT P6SM BKN020 OVC080 
     FM221600 08005KT P6SM SCT025 OVC060 
     TEMPO 2217/2220 6SM -RA 
     FM222000 07004KT 5SM -RA BKN025 OVC050 
     FM230100 06004KT 3SM -RA BR BKN007 OVC015 
     FM230600 05006KT 2SM -RADZ BR OVC004